sensor_id;sensor_type;location;lat;lon;timestamp;P1;durP1;ratioP1;P2;durP2;ratioP2
62947;SDS011;51940;52.126;-0.994;2023-01-28T00:01:59;12.80;;;7.30;;
62947;SDS011;51940;52.126;-0.994;2023-01-28T00:04:24;9.00;;;7.20;;
62947;SDS011;51940;52.126;-0.994;2023-01-28T00:06:50;9.50;;;6.80;;
62947;SDS011;51940;52.126;-0.994;2023-01-28T00:09:17;10.00;;;6.50;;
62947;SDS011;51940;52.126;-0.994;2023-01-28T00:11:43;10.40;;;7.00;;
62947;SDS011;51940;52.126;-0.994;2023-01-28T00:14:10;9.60;;;7.40;;
62947;SDS011;51940;52.126;-0.994;2023-01-28T00:16:36;10.80;;;7.20;;
62947;SDS011;51940;52.126;-0.994;2023-01-28T00:19:02;12.30;;;7.80;;
62947;SDS011;51940;52.126;-0.994;2023-01-28T00:21:27;13.50;;;8.60;;
62947;SDS011;51940;52.126;-0.994;2023-01-28T00:23:53;14.10;;;7.70;;
62947;SDS011;51940;52.126;-0.994;2023-01-28T00:26:20;14.10;;;7.90;;
62947;SDS011;51940;52.126;-0.994;2023-01-28T00:28:47;12.80;;;8.00;;
62947;SDS011;51940;52.126;-0.994;2023-01-28T00:31:14;12.30;;;8.40;;
62947;SDS011;51940;52.126;-0.994;2023-01-28T00:33:41;11.50;;;7.80;;
62947;SDS011;51940;52.126;-0.994;2023-01-28T00:36:08;11.10;;;7.30;;
62947;SDS011;51940;52.126;-0.994;2023-01-28T00:38:35;11.90;;;7.50;;
62947;SDS011;51940;52.126;-0.994;2023-01-28T00:41:07;14.30;;;7.60;;
62947;SDS011;51940;52.126;-0.994;2023-01-28T00:43:35;13.30;;;8.30;;
62947;SDS011;51940;52.126;-0.994;2023-01-28T00:46:02;12.60;;;7.50;;
62947;SDS011;51940;52.126;-0.994;2023-01-28T00:48:34;12.00;;;7.20;;
62947;SDS011;51940;52.126;-0.994;2023-01-28T00:51:01;9.60;;;7.50;;
62947;SDS011;51940;52.126;-0.994;2023-01-28T00:53:27;11.20;;;7.60;;
62947;SDS011;51940;52.126;-0.994;2023-01-28T00:55:53;11.10;;;7.70;;
62947;SDS011;51940;52.126;-0.994;2023-01-28T00:58:19;13.10;;;6.60;;
62947;SDS011;51940;52.126;-0.994;2023-01-28T01:00:45;12.90;;;7.50;;
62947;SDS011;51940;52.126;-0.994;2023-01-28T01:03:11;11.40;;;7.50;;
62947;SDS011;51940;52.126;-0.994;2023-01-28T01:05:36;13.40;;;7.70;;
62947;SDS011;51940;52.126;-0.994;2023-01-28T01:08:02;12.90;;;7.60;;
62947;SDS011;51940;52.126;-0.994;2023-01-28T01:10:27;10.90;;;7.30;;
62947;SDS011;51940;52.126;-0.994;2023-01-28T01:12:53;11.50;;;7.60;;
62947;SDS011;51940;52.126;-0.994;2023-01-28T01:15:19;14.00;;;7.60;;
62947;SDS011;51940;52.126;-0.994;2023-01-28T01:17:45;11.50;;;7.20;;
62947;SDS011;51940;52.126;-0.994;2023-01-28T01:20:17;9.50;;;7.50;;
62947;SDS011;51940;52.126;-0.994;2023-01-28T01:22:48;13.00;;;7.80;;
62947;SDS011;51940;52.126;-0.994;2023-01-28T01:25:13;13.40;;;8.30;;
62947;SDS011;51940;52.126;-0.994;2023-01-28T01:27:41;13.50;;;8.20;;
62947;SDS011;51940;52.126;-0.994;2023-01-28T01:30:07;12.30;;;8.40;;
62947;SDS011;51940;52.126;-0.994;2023-01-28T01:32:34;12.10;;;7.70;;
62947;SDS011;51940;52.126;-0.994;2023-01-28T01:35:00;12.90;;;8.30;;
62947;SDS011;51940;52.126;-0.994;2023-01-28T01:37:27;13.80;;;8.10;;
62947;SDS011;51940;52.126;-0.994;2023-01-28T01:39:53;11.40;;;7.40;;
62947;SDS011;51940;52.126;-0.994;2023-01-28T01:42:19;10.90;;;7.50;;
62947;SDS011;51940;52.126;-0.994;2023-01-28T01:47:53;15.20;;;7.50;;
62947;SDS011;51940;52.126;-0.994;2023-01-28T01:50:38;10.80;;;7.30;;
62947;SDS011;51940;52.126;-0.994;2023-01-28T01:53:09;12.30;;;7.70;;
62947;SDS011;51940;52.126;-0.994;2023-01-28T01:55:38;12.10;;;8.50;;
62947;SDS011;51940;52.126;-0.994;2023-01-28T01:58:07;15.70;;;8.60;;
62947;SDS011;51940;52.126;-0.994;2023-01-28T02:00:36;15.00;;;8.00;;
62947;SDS011;51940;52.126;-0.994;2023-01-28T02:03:02;17.20;;;8.80;;
62947;SDS011;51940;52.126;-0.994;2023-01-28T02:05:28;11.20;;;7.60;;
62947;SDS011;51940;52.126;-0.994;2023-01-28T02:07:54;13.50;;;8.60;;
62947;SDS011;51940;52.126;-0.994;2023-01-28T02:10:42;12.50;;;8.10;;
62947;SDS011;51940;52.126;-0.994;2023-01-28T02:13:09;17.40;;;9.00;;
62947;SDS011;51940;52.126;-0.994;2023-01-28T02:15:34;12.10;;;8.50;;
62947;SDS011;51940;52.126;-0.994;2023-01-28T02:18:00;15.00;;;8.30;;
62947;SDS011;51940;52.126;-0.994;2023-01-28T02:31:58;14.30;;;8.70;;
62947;SDS011;51940;52.126;-0.994;2023-01-28T02:34:37;15.30;;;9.70;;
62947;SDS011;51940;52.126;-0.994;2023-01-28T02:37:12;13.90;;;9.20;;
62947;SDS011;51940;52.126;-0.994;2023-01-28T02:39:47;17.50;;;9.30;;
62947;SDS011;51940;52.126;-0.994;2023-01-28T02:42:21;15.10;;;9.30;;
62947;SDS011;51940;52.126;-0.994;2023-01-28T02:44:51;13.50;;;9.20;;
62947;SDS011;51940;52.126;-0.994;2023-01-28T02:47:16;14.20;;;9.60;;
62947;SDS011;51940;52.126;-0.994;2023-01-28T02:50:02;17.40;;;9.70;;
62947;SDS011;51940;52.126;-0.994;2023-01-28T03:06:23;15.80;;;9.90;;
62947;SDS011;51940;52.126;-0.994;2023-01-28T03:08:59;14.20;;;9.40;;
62947;SDS011;51940;52.126;-0.994;2023-01-28T03:11:57;14.10;;;9.50;;
62947;SDS011;51940;52.126;-0.994;2023-01-28T03:14:48;15.30;;;9.30;;
62947;SDS011;51940;52.126;-0.994;2023-01-28T03:20:24;16.80;;;9.40;;
62947;SDS011;51940;52.126;-0.994;2023-01-28T03:23:13;15.80;;;9.90;;
62947;SDS011;51940;52.126;-0.994;2023-01-28T03:26:02;15.20;;;9.70;;
62947;SDS011;51940;52.126;-0.994;2023-01-28T03:28:50;14.20;;;9.30;;
62947;SDS011;51940;52.126;-0.994;2023-01-28T03:31:37;14.90;;;9.60;;
62947;SDS011;51940;52.126;-0.994;2023-01-28T03:34:23;15.70;;;9.40;;
62947;SDS011;51940;52.126;-0.994;2023-01-28T03:37:08;13.60;;;9.10;;
62947;SDS011;51940;52.126;-0.994;2023-01-28T03:39:34;16.10;;;10.20;;
62947;SDS011;51940;52.126;-0.994;2023-01-28T03:44:29;15.70;;;10.50;;
62947;SDS011;51940;52.126;-0.994;2023-01-28T03:47:13;17.20;;;9.70;;
62947;SDS011;51940;52.126;-0.994;2023-01-28T03:49:42;16.70;;;10.30;;
62947;SDS011;51940;52.126;-0.994;2023-01-28T03:52:15;15.60;;;10.10;;
62947;SDS011;51940;52.126;-0.994;2023-01-28T03:54:47;18.10;;;9.90;;
62947;SDS011;51940;52.126;-0.994;2023-01-28T03:57:16;15.20;;;9.60;;
62947;SDS011;51940;52.126;-0.994;2023-01-28T03:59:44;15.80;;;9.50;;
62947;SDS011;51940;52.126;-0.994;2023-01-28T04:02:09;16.60;;;10.10;;
62947;SDS011;51940;52.126;-0.994;2023-01-28T04:04:39;16.90;;;10.60;;
62947;SDS011;51940;52.126;-0.994;2023-01-28T04:07:06;16.00;;;10.20;;
62947;SDS011;51940;52.126;-0.994;2023-01-28T04:09:34;16.60;;;9.60;;
62947;SDS011;51940;52.126;-0.994;2023-01-28T04:12:03;18.60;;;9.60;;
62947;SDS011;51940;52.126;-0.994;2023-01-28T04:14:29;14.90;;;9.80;;
62947;SDS011;51940;52.126;-0.994;2023-01-28T04:16:55;15.20;;;9.50;;
62947;SDS011;51940;52.126;-0.994;2023-01-28T04:19:21;17.00;;;11.00;;
62947;SDS011;51940;52.126;-0.994;2023-01-28T04:21:47;18.90;;;11.20;;
62947;SDS011;51940;52.126;-0.994;2023-01-28T04:24:13;19.10;;;11.00;;
62947;SDS011;51940;52.126;-0.994;2023-01-28T04:26:40;17.30;;;10.80;;
62947;SDS011;51940;52.126;-0.994;2023-01-28T04:29:06;20.40;;;11.10;;
62947;SDS011;51940;52.126;-0.994;2023-01-28T04:31:31;18.40;;;11.10;;
62947;SDS011;51940;52.126;-0.994;2023-01-28T04:33:58;17.00;;;10.60;;
62947;SDS011;51940;52.126;-0.994;2023-01-28T04:36:24;18.90;;;11.70;;
62947;SDS011;51940;52.126;-0.994;2023-01-28T04:38:49;18.10;;;11.10;;
62947;SDS011;51940;52.126;-0.994;2023-01-28T04:41:15;17.80;;;10.90;;
62947;SDS011;51940;52.126;-0.994;2023-01-28T04:43:40;19.20;;;10.80;;
62947;SDS011;51940;52.126;-0.994;2023-01-28T04:46:06;18.20;;;11.40;;
62947;SDS011;51940;52.126;-0.994;2023-01-28T04:48:32;18.80;;;10.90;;
62947;SDS011;51940;52.126;-0.994;2023-01-28T04:50:59;17.80;;;11.00;;
62947;SDS011;51940;52.126;-0.994;2023-01-28T04:53:25;20.10;;;10.90;;
62947;SDS011;51940;52.126;-0.994;2023-01-28T04:55:50;19.10;;;10.70;;
62947;SDS011;51940;52.126;-0.994;2023-01-28T04:58:16;17.40;;;10.50;;
62947;SDS011;51940;52.126;-0.994;2023-01-28T05:00:41;17.90;;;11.00;;
62947;SDS011;51940;52.126;-0.994;2023-01-28T05:03:06;17.30;;;11.30;;
62947;SDS011;51940;52.126;-0.994;2023-01-28T05:05:32;19.50;;;10.20;;
62947;SDS011;51940;52.126;-0.994;2023-01-28T05:07:57;20.00;;;11.50;;
62947;SDS011;51940;52.126;-0.994;2023-01-28T05:10:24;16.90;;;10.40;;
62947;SDS011;51940;52.126;-0.994;2023-01-28T05:12:50;19.30;;;11.00;;
62947;SDS011;51940;52.126;-0.994;2023-01-28T05:15:16;17.00;;;11.20;;
62947;SDS011;51940;52.126;-0.994;2023-01-28T05:17:43;17.00;;;10.20;;
62947;SDS011;51940;52.126;-0.994;2023-01-28T05:20:10;18.10;;;10.80;;
62947;SDS011;51940;52.126;-0.994;2023-01-28T05:22:37;18.70;;;10.30;;
62947;SDS011;51940;52.126;-0.994;2023-01-28T05:25:04;16.20;;;10.40;;
62947;SDS011;51940;52.126;-0.994;2023-01-28T05:27:30;17.50;;;10.70;;
62947;SDS011;51940;52.126;-0.994;2023-01-28T05:29:57;22.30;;;11.10;;
62947;SDS011;51940;52.126;-0.994;2023-01-28T05:32:23;21.30;;;10.80;;
62947;SDS011;51940;52.126;-0.994;2023-01-28T05:34:48;17.60;;;10.80;;
62947;SDS011;51940;52.126;-0.994;2023-01-28T05:37:14;20.00;;;10.90;;
62947;SDS011;51940;52.126;-0.994;2023-01-28T05:39:39;17.60;;;10.60;;
62947;SDS011;51940;52.126;-0.994;2023-01-28T05:42:04;20.20;;;11.70;;
62947;SDS011;51940;52.126;-0.994;2023-01-28T05:44:30;18.40;;;11.20;;
62947;SDS011;51940;52.126;-0.994;2023-01-28T05:46:55;19.20;;;11.10;;
62947;SDS011;51940;52.126;-0.994;2023-01-28T05:49:21;19.40;;;11.50;;
62947;SDS011;51940;52.126;-0.994;2023-01-28T05:51:46;22.90;;;11.50;;
62947;SDS011;51940;52.126;-0.994;2023-01-28T05:54:12;21.10;;;12.60;;
62947;SDS011;51940;52.126;-0.994;2023-01-28T05:56:38;16.90;;;10.80;;
62947;SDS011;51940;52.126;-0.994;2023-01-28T05:59:04;19.90;;;11.70;;
62947;SDS011;51940;52.126;-0.994;2023-01-28T06:01:29;17.30;;;10.50;;
62947;SDS011;51940;52.126;-0.994;2023-01-28T06:03:55;18.30;;;10.80;;
62947;SDS011;51940;52.126;-0.994;2023-01-28T06:06:21;19.70;;;11.60;;
62947;SDS011;51940;52.126;-0.994;2023-01-28T06:08:46;18.50;;;10.90;;
62947;SDS011;51940;52.126;-0.994;2023-01-28T06:11:11;20.70;;;12.10;;
62947;SDS011;51940;52.126;-0.994;2023-01-28T06:13:37;20.40;;;11.90;;
62947;SDS011;51940;52.126;-0.994;2023-01-28T06:16:02;20.40;;;11.90;;
62947;SDS011;51940;52.126;-0.994;2023-01-28T06:18:28;19.30;;;12.30;;
62947;SDS011;51940;52.126;-0.994;2023-01-28T06:20:53;21.90;;;12.00;;
62947;SDS011;51940;52.126;-0.994;2023-01-28T06:23:19;21.50;;;12.50;;
62947;SDS011;51940;52.126;-0.994;2023-01-28T06:25:44;21.50;;;12.30;;
62947;SDS011;51940;52.126;-0.994;2023-01-28T06:28:10;20.60;;;11.60;;
62947;SDS011;51940;52.126;-0.994;2023-01-28T06:30:35;21.30;;;12.20;;
62947;SDS011;51940;52.126;-0.994;2023-01-28T06:33:00;21.50;;;12.20;;
62947;SDS011;51940;52.126;-0.994;2023-01-28T06:35:26;20.70;;;12.10;;
62947;SDS011;51940;52.126;-0.994;2023-01-28T06:37:51;21.20;;;12.30;;
62947;SDS011;51940;52.126;-0.994;2023-01-28T06:40:18;21.70;;;12.20;;
62947;SDS011;51940;52.126;-0.994;2023-01-28T06:42:44;22.40;;;12.30;;
62947;SDS011;51940;52.126;-0.994;2023-01-28T06:45:10;21.70;;;12.40;;
62947;SDS011;51940;52.126;-0.994;2023-01-28T06:47:37;22.30;;;11.90;;
62947;SDS011;51940;52.126;-0.994;2023-01-28T06:50:04;23.30;;;11.70;;
62947;SDS011;51940;52.126;-0.994;2023-01-28T06:52:29;18.30;;;11.40;;
62947;SDS011;51940;52.126;-0.994;2023-01-28T06:54:55;21.40;;;11.80;;
62947;SDS011;51940;52.126;-0.994;2023-01-28T06:57:21;23.90;;;12.30;;
62947;SDS011;51940;52.126;-0.994;2023-01-28T06:59:46;23.30;;;12.10;;
62947;SDS011;51940;52.126;-0.994;2023-01-28T07:02:12;21.00;;;12.10;;
62947;SDS011;51940;52.126;-0.994;2023-01-28T07:04:37;21.10;;;12.20;;
62947;SDS011;51940;52.126;-0.994;2023-01-28T07:07:03;25.00;;;12.20;;
62947;SDS011;51940;52.126;-0.994;2023-01-28T07:09:28;23.40;;;12.20;;
62947;SDS011;51940;52.126;-0.994;2023-01-28T07:11:53;22.90;;;13.30;;
62947;SDS011;51940;52.126;-0.994;2023-01-28T07:14:19;23.80;;;12.70;;
62947;SDS011;51940;52.126;-0.994;2023-01-28T07:16:44;22.40;;;12.00;;
62947;SDS011;51940;52.126;-0.994;2023-01-28T07:19:09;20.30;;;11.90;;
62947;SDS011;51940;52.126;-0.994;2023-01-28T07:21:35;21.20;;;12.00;;
62947;SDS011;51940;52.126;-0.994;2023-01-28T07:24:00;19.70;;;11.40;;
62947;SDS011;51940;52.126;-0.994;2023-01-28T07:26:25;21.90;;;11.70;;
62947;SDS011;51940;52.126;-0.994;2023-01-28T07:28:51;21.10;;;12.30;;
62947;SDS011;51940;52.126;-0.994;2023-01-28T07:31:16;21.70;;;12.20;;
62947;SDS011;51940;52.126;-0.994;2023-01-28T07:33:41;21.60;;;12.70;;
62947;SDS011;51940;52.126;-0.994;2023-01-28T07:36:07;18.40;;;11.50;;
62947;SDS011;51940;52.126;-0.994;2023-01-28T07:38:32;21.20;;;11.40;;
62947;SDS011;51940;52.126;-0.994;2023-01-28T07:40:58;21.10;;;12.80;;
62947;SDS011;51940;52.126;-0.994;2023-01-28T07:43:23;20.60;;;12.10;;
62947;SDS011;51940;52.126;-0.994;2023-01-28T07:45:48;19.40;;;11.70;;
62947;SDS011;51940;52.126;-0.994;2023-01-28T07:48:14;23.80;;;12.20;;
62947;SDS011;51940;52.126;-0.994;2023-01-28T07:50:40;21.10;;;12.10;;
62947;SDS011;51940;52.126;-0.994;2023-01-28T07:53:07;20.10;;;11.60;;
62947;SDS011;51940;52.126;-0.994;2023-01-28T07:55:35;19.50;;;11.80;;
62947;SDS011;51940;52.126;-0.994;2023-01-28T07:58:02;21.20;;;12.20;;
62947;SDS011;51940;52.126;-0.994;2023-01-28T08:00:30;20.50;;;11.90;;
62947;SDS011;51940;52.126;-0.994;2023-01-28T08:02:57;19.90;;;12.60;;
62947;SDS011;51940;52.126;-0.994;2023-01-28T08:05:25;19.80;;;12.70;;
62947;SDS011;51940;52.126;-0.994;2023-01-28T08:07:54;23.30;;;12.10;;
62947;SDS011;51940;52.126;-0.994;2023-01-28T08:10:19;21.00;;;12.80;;
62947;SDS011;51940;52.126;-0.994;2023-01-28T08:12:54;22.80;;;13.40;;
62947;SDS011;51940;52.126;-0.994;2023-01-28T08:15:22;24.40;;;12.80;;
62947;SDS011;51940;52.126;-0.994;2023-01-28T08:17:49;22.10;;;13.20;;
62947;SDS011;51940;52.126;-0.994;2023-01-28T08:20:17;22.60;;;13.60;;
62947;SDS011;51940;52.126;-0.994;2023-01-28T08:22:42;21.90;;;12.50;;
62947;SDS011;51940;52.126;-0.994;2023-01-28T08:25:08;21.60;;;12.80;;
62947;SDS011;51940;52.126;-0.994;2023-01-28T08:27:33;24.40;;;13.10;;
62947;SDS011;51940;52.126;-0.994;2023-01-28T08:29:59;20.60;;;12.60;;
62947;SDS011;51940;52.126;-0.994;2023-01-28T08:32:24;20.50;;;12.20;;
62947;SDS011;51940;52.126;-0.994;2023-01-28T08:34:49;19.60;;;12.20;;
62947;SDS011;51940;52.126;-0.994;2023-01-28T08:37:15;21.10;;;12.20;;
62947;SDS011;51940;52.126;-0.994;2023-01-28T08:39:40;20.40;;;12.70;;
62947;SDS011;51940;52.126;-0.994;2023-01-28T08:42:06;23.50;;;13.20;;
62947;SDS011;51940;52.126;-0.994;2023-01-28T08:44:32;21.70;;;12.90;;
62947;SDS011;51940;52.126;-0.994;2023-01-28T08:46:58;19.70;;;12.30;;
62947;SDS011;51940;52.126;-0.994;2023-01-28T08:49:23;22.00;;;12.80;;
62947;SDS011;51940;52.126;-0.994;2023-01-28T08:51:49;20.50;;;12.50;;
62947;SDS011;51940;52.126;-0.994;2023-01-28T08:54:14;19.70;;;12.20;;
62947;SDS011;51940;52.126;-0.994;2023-01-28T08:56:39;20.60;;;13.10;;
62947;SDS011;51940;52.126;-0.994;2023-01-28T08:59:09;19.20;;;11.80;;
62947;SDS011;51940;52.126;-0.994;2023-01-28T09:01:37;20.00;;;11.90;;
62947;SDS011;51940;52.126;-0.994;2023-01-28T09:04:03;20.30;;;12.00;;
62947;SDS011;51940;52.126;-0.994;2023-01-28T09:06:28;20.70;;;11.30;;
62947;SDS011;51940;52.126;-0.994;2023-01-28T09:09:00;18.70;;;10.80;;
62947;SDS011;51940;52.126;-0.994;2023-01-28T09:11:27;17.20;;;10.40;;
62947;SDS011;51940;52.126;-0.994;2023-01-28T09:13:55;19.00;;;11.30;;
62947;SDS011;51940;52.126;-0.994;2023-01-28T09:16:21;19.20;;;11.30;;
62947;SDS011;51940;52.126;-0.994;2023-01-28T09:18:47;19.20;;;12.10;;
62947;SDS011;51940;52.126;-0.994;2023-01-28T09:21:12;21.60;;;11.50;;
62947;SDS011;51940;52.126;-0.994;2023-01-28T09:23:38;18.30;;;10.40;;
62947;SDS011;51940;52.126;-0.994;2023-01-28T09:26:04;18.10;;;10.50;;
62947;SDS011;51940;52.126;-0.994;2023-01-28T09:28:30;18.70;;;10.60;;
62947;SDS011;51940;52.126;-0.994;2023-01-28T09:33:35;17.80;;;11.00;;
62947;SDS011;51940;52.126;-0.994;2023-01-28T09:36:03;16.40;;;10.20;;
62947;SDS011;51940;52.126;-0.994;2023-01-28T09:38:32;18.80;;;10.90;;
62947;SDS011;51940;52.126;-0.994;2023-01-28T09:40:59;20.30;;;11.00;;
62947;SDS011;51940;52.126;-0.994;2023-01-28T09:46:23;15.70;;;10.20;;
62947;SDS011;51940;52.126;-0.994;2023-01-28T09:48:55;20.80;;;10.70;;
62947;SDS011;51940;52.126;-0.994;2023-01-28T09:51:28;16.50;;;10.00;;
62947;SDS011;51940;52.126;-0.994;2023-01-28T09:57:05;16.80;;;10.80;;
62947;SDS011;51940;52.126;-0.994;2023-01-28T09:59:36;17.10;;;9.30;;
62947;SDS011;51940;52.126;-0.994;2023-01-28T10:02:11;15.10;;;9.60;;
62947;SDS011;51940;52.126;-0.994;2023-01-28T10:08:14;14.80;;;9.60;;
62947;SDS011;51940;52.126;-0.994;2023-01-28T10:11:19;14.20;;;9.30;;
62947;SDS011;51940;52.126;-0.994;2023-01-28T10:14:03;16.40;;;9.70;;
62947;SDS011;51940;52.126;-0.994;2023-01-28T10:16:37;15.00;;;9.40;;
62947;SDS011;51940;52.126;-0.994;2023-01-28T10:19:18;13.90;;;9.10;;
62947;SDS011;51940;52.126;-0.994;2023-01-28T10:21:56;31.60;;;10.20;;
62947;SDS011;51940;52.126;-0.994;2023-01-28T10:24:38;14.40;;;9.10;;
62947;SDS011;51940;52.126;-0.994;2023-01-28T10:27:15;12.00;;;8.70;;
62947;SDS011;51940;52.126;-0.994;2023-01-28T10:29:43;15.00;;;9.70;;
62947;SDS011;51940;52.126;-0.994;2023-01-28T10:32:30;15.00;;;9.10;;
62947;SDS011;51940;52.126;-0.994;2023-01-28T10:34:58;13.30;;;8.70;;
62947;SDS011;51940;52.126;-0.994;2023-01-28T10:37:26;12.70;;;8.60;;
62947;SDS011;51940;52.126;-0.994;2023-01-28T10:39:52;11.20;;;8.20;;
62947;SDS011;51940;52.126;-0.994;2023-01-28T10:42:25;13.90;;;8.80;;
62947;SDS011;51940;52.126;-0.994;2023-01-28T10:44:52;13.10;;;8.40;;
62947;SDS011;51940;52.126;-0.994;2023-01-28T10:47:26;12.80;;;8.50;;
62947;SDS011;51940;52.126;-0.994;2023-01-28T10:49:57;14.60;;;8.40;;
62947;SDS011;51940;52.126;-0.994;2023-01-28T10:52:26;13.00;;;8.70;;
62947;SDS011;51940;52.126;-0.994;2023-01-28T10:55:02;12.40;;;8.20;;
62947;SDS011;51940;52.126;-0.994;2023-01-28T10:57:32;12.70;;;7.90;;
62947;SDS011;51940;52.126;-0.994;2023-01-28T11:03:01;10.90;;;8.20;;
62947;SDS011;51940;52.126;-0.994;2023-01-28T11:05:27;11.90;;;7.50;;
62947;SDS011;51940;52.126;-0.994;2023-01-28T11:08:13;11.60;;;7.50;;
62947;SDS011;51940;52.126;-0.994;2023-01-28T11:10:41;10.30;;;6.80;;
62947;SDS011;51940;52.126;-0.994;2023-01-28T11:13:15;12.20;;;7.60;;
62947;SDS011;51940;52.126;-0.994;2023-01-28T11:15:53;11.00;;;7.50;;
62947;SDS011;51940;52.126;-0.994;2023-01-28T11:18:33;10.90;;;7.00;;
62947;SDS011;51940;52.126;-0.994;2023-01-28T11:21:05;9.70;;;6.90;;
62947;SDS011;51940;52.126;-0.994;2023-01-28T11:23:59;10.00;;;6.70;;
62947;SDS011;51940;52.126;-0.994;2023-01-28T11:26:29;8.20;;;6.50;;
62947;SDS011;51940;52.126;-0.994;2023-01-28T11:28:59;11.80;;;6.80;;
62947;SDS011;51940;52.126;-0.994;2023-01-28T11:31:24;9.80;;;6.60;;
62947;SDS011;51940;52.126;-0.994;2023-01-28T11:33:52;11.20;;;6.40;;
62947;SDS011;51940;52.126;-0.994;2023-01-28T11:36:24;7.90;;;6.10;;
62947;SDS011;51940;52.126;-0.994;2023-01-28T11:38:56;10.50;;;6.00;;
62947;SDS011;51940;52.126;-0.994;2023-01-28T11:43:54;12.30;;;7.10;;
62947;SDS011;51940;52.126;-0.994;2023-01-28T11:46:34;8.40;;;5.80;;
62947;SDS011;51940;52.126;-0.994;2023-01-28T11:51:55;8.00;;;5.20;;
62947;SDS011;51940;52.126;-0.994;2023-01-28T11:57:13;11.90;;;5.70;;
62947;SDS011;51940;52.126;-0.994;2023-01-28T12:00:21;8.00;;;5.20;;
62947;SDS011;51940;52.126;-0.994;2023-01-28T12:02:51;8.40;;;5.50;;
62947;SDS011;51940;52.126;-0.994;2023-01-28T12:07:58;8.40;;;5.30;;
62947;SDS011;51940;52.126;-0.994;2023-01-28T12:10:37;9.10;;;5.50;;
62947;SDS011;51940;52.126;-0.994;2023-01-28T12:19:08;10.60;;;6.00;;
62947;SDS011;51940;52.126;-0.994;2023-01-28T12:35:51;8.30;;;5.80;;
62947;SDS011;51940;52.126;-0.994;2023-01-28T12:38:52;8.60;;;5.80;;
62947;SDS011;51940;52.126;-0.994;2023-01-28T12:41:24;8.20;;;5.90;;
62947;SDS011;51940;52.126;-0.994;2023-01-28T12:44:02;9.40;;;6.10;;
62947;SDS011;51940;52.126;-0.994;2023-01-28T12:46:35;11.10;;;5.80;;
62947;SDS011;51940;52.126;-0.994;2023-01-28T12:49:23;8.90;;;5.70;;
62947;SDS011;51940;52.126;-0.994;2023-01-28T12:52:04;10.30;;;6.80;;
62947;SDS011;51940;52.126;-0.994;2023-01-28T12:54:53;8.80;;;6.30;;
62947;SDS011;51940;52.126;-0.994;2023-01-28T12:57:29;10.70;;;5.90;;
62947;SDS011;51940;52.126;-0.994;2023-01-28T13:05:42;9.70;;;6.10;;
62947;SDS011;51940;52.126;-0.994;2023-01-28T13:08:18;9.80;;;6.20;;
62947;SDS011;51940;52.126;-0.994;2023-01-28T13:10:48;10.40;;;6.60;;
62947;SDS011;51940;52.126;-0.994;2023-01-28T13:15:58;9.30;;;5.80;;
62947;SDS011;51940;52.126;-0.994;2023-01-28T13:23:49;8.90;;;6.00;;
62947;SDS011;51940;52.126;-0.994;2023-01-28T13:31:39;12.70;;;7.50;;
62947;SDS011;51940;52.126;-0.994;2023-01-28T13:34:08;9.60;;;6.30;;
62947;SDS011;51940;52.126;-0.994;2023-01-28T13:36:53;10.50;;;7.00;;
62947;SDS011;51940;52.126;-0.994;2023-01-28T13:39:22;11.80;;;6.50;;
62947;SDS011;51940;52.126;-0.994;2023-01-28T13:41:51;11.10;;;7.10;;
62947;SDS011;51940;52.126;-0.994;2023-01-28T13:44:29;9.00;;;6.40;;
62947;SDS011;51940;52.126;-0.994;2023-01-28T13:47:13;8.80;;;6.40;;
62947;SDS011;51940;52.126;-0.994;2023-01-28T13:49:46;9.50;;;6.70;;
62947;SDS011;51940;52.126;-0.994;2023-01-28T13:52:16;11.50;;;7.50;;
62947;SDS011;51940;52.126;-0.994;2023-01-28T13:54:51;11.20;;;7.60;;
62947;SDS011;51940;52.126;-0.994;2023-01-28T14:05:43;11.70;;;7.40;;
62947;SDS011;51940;52.126;-0.994;2023-01-28T14:16:43;9.80;;;7.70;;
62947;SDS011;51940;52.126;-0.994;2023-01-28T14:19:17;11.80;;;7.00;;
62947;SDS011;51940;52.126;-0.994;2023-01-28T14:21:46;9.80;;;6.60;;
62947;SDS011;51940;52.126;-0.994;2023-01-28T14:24:13;11.50;;;7.40;;
62947;SDS011;51940;52.126;-0.994;2023-01-28T14:26:45;11.90;;;7.70;;
62947;SDS011;51940;52.126;-0.994;2023-01-28T14:32:27;11.40;;;7.30;;
62947;SDS011;51940;52.126;-0.994;2023-01-28T14:34:55;11.60;;;7.70;;
62947;SDS011;51940;52.126;-0.994;2023-01-28T14:37:29;10.70;;;7.70;;
62947;SDS011;51940;52.126;-0.994;2023-01-28T14:40:15;11.40;;;7.10;;
62947;SDS011;51940;52.126;-0.994;2023-01-28T14:42:42;17.50;;;7.10;;
62947;SDS011;51940;52.126;-0.994;2023-01-28T14:56:33;10.40;;;7.10;;
62947;SDS011;51940;52.126;-0.994;2023-01-28T15:02:00;12.10;;;7.50;;
62947;SDS011;51940;52.126;-0.994;2023-01-28T15:04:29;11.30;;;7.10;;
62947;SDS011;51940;52.126;-0.994;2023-01-28T15:06:56;9.70;;;7.20;;
62947;SDS011;51940;52.126;-0.994;2023-01-28T15:09:25;11.90;;;7.50;;
62947;SDS011;51940;52.126;-0.994;2023-01-28T15:11:52;10.20;;;7.80;;
62947;SDS011;51940;52.126;-0.994;2023-01-28T15:14:30;13.30;;;7.70;;
62947;SDS011;51940;52.126;-0.994;2023-01-28T15:16:56;13.10;;;7.00;;
62947;SDS011;51940;52.126;-0.994;2023-01-28T15:19:33;11.60;;;7.70;;
62947;SDS011;51940;52.126;-0.994;2023-01-28T15:22:02;13.00;;;7.20;;
62947;SDS011;51940;52.126;-0.994;2023-01-28T15:24:32;10.50;;;6.90;;
62947;SDS011;51940;52.126;-0.994;2023-01-28T15:26:59;11.80;;;6.80;;
62947;SDS011;51940;52.126;-0.994;2023-01-28T15:29:32;11.40;;;7.60;;
62947;SDS011;51940;52.126;-0.994;2023-01-28T15:32:00;11.60;;;7.50;;
62947;SDS011;51940;52.126;-0.994;2023-01-28T15:34:28;14.00;;;7.70;;
62947;SDS011;51940;52.126;-0.994;2023-01-28T15:36:56;14.50;;;8.00;;
62947;SDS011;51940;52.126;-0.994;2023-01-28T15:39:26;12.90;;;7.00;;
62947;SDS011;51940;52.126;-0.994;2023-01-28T15:46:57;12.40;;;7.50;;
62947;SDS011;51940;52.126;-0.994;2023-01-28T15:49:28;13.10;;;8.20;;
62947;SDS011;51940;52.126;-0.994;2023-01-28T15:51:59;11.90;;;7.60;;
62947;SDS011;51940;52.126;-0.994;2023-01-28T15:54:25;11.00;;;7.40;;
62947;SDS011;51940;52.126;-0.994;2023-01-28T15:56:51;10.60;;;7.90;;
62947;SDS011;51940;52.126;-0.994;2023-01-28T15:59:17;11.30;;;8.10;;
62947;SDS011;51940;52.126;-0.994;2023-01-28T16:01:44;12.60;;;8.40;;
62947;SDS011;51940;52.126;-0.994;2023-01-28T16:04:27;13.80;;;8.50;;
62947;SDS011;51940;52.126;-0.994;2023-01-28T16:06:55;10.80;;;7.60;;
62947;SDS011;51940;52.126;-0.994;2023-01-28T16:11:52;12.30;;;8.60;;
62947;SDS011;51940;52.126;-0.994;2023-01-28T16:14:28;12.70;;;9.00;;
62947;SDS011;51940;52.126;-0.994;2023-01-28T16:16:58;12.70;;;8.30;;
62947;SDS011;51940;52.126;-0.994;2023-01-28T16:19:37;15.70;;;9.50;;
62947;SDS011;51940;52.126;-0.994;2023-01-28T16:22:05;13.50;;;9.20;;
62947;SDS011;51940;52.126;-0.994;2023-01-28T16:24:46;13.40;;;9.10;;
62947;SDS011;51940;52.126;-0.994;2023-01-28T16:27:21;12.50;;;8.60;;
62947;SDS011;51940;52.126;-0.994;2023-01-28T16:29:48;13.90;;;9.50;;
62947;SDS011;51940;52.126;-0.994;2023-01-28T16:34:57;12.30;;;8.90;;
62947;SDS011;51940;52.126;-0.994;2023-01-28T16:37:22;14.30;;;9.10;;
62947;SDS011;51940;52.126;-0.994;2023-01-28T16:39:48;12.50;;;8.90;;
62947;SDS011;51940;52.126;-0.994;2023-01-28T16:42:13;11.80;;;8.70;;
62947;SDS011;51940;52.126;-0.994;2023-01-28T16:44:38;11.90;;;8.70;;
62947;SDS011;51940;52.126;-0.994;2023-01-28T16:47:04;13.40;;;8.90;;
62947;SDS011;51940;52.126;-0.994;2023-01-28T16:49:30;14.80;;;9.30;;
62947;SDS011;51940;52.126;-0.994;2023-01-28T16:51:56;15.30;;;8.80;;
62947;SDS011;51940;52.126;-0.994;2023-01-28T16:54:21;16.60;;;8.90;;
62947;SDS011;51940;52.126;-0.994;2023-01-28T16:56:47;13.90;;;8.40;;